Time;durP1;ratioP1;P1;durP2;ratioP2;P2;SDS_P1;SDS_P2;PMS_P1;PMS_P2;Temp;Humidity;BMP_temperature;BMP_pressure;BME280_temperature;BME280_humidity;BME280_pressure;Samples;Min_cycle;Max_cycle;Signal;HPM_P1;HPM_P2
2021/07/08 00:01:57;;;;;;;2.43;1.83;;;;;;;19.28;66.05;102004.03;3561833;40;20262;-79
2021/07/08 00:04:23;;;;;;;2.20;2.00;;;;;;;19.25;66.95;102009.22;3561253;40;20219;-79
2021/07/08 00:06:48;;;;;;;2.50;2.30;;;;;;;19.21;66.87;101999.63;3559636;40;20243;-79
2021/07/08 00:09:15;;;;;;;3.67;2.40;;;;;;;19.19;66.78;102000.50;3560553;40;20227;-79
2021/07/08 00:11:41;;;;;;;4.93;2.00;;;;;;;19.15;67.20;102003.94;3562557;40;20242;-80
2021/07/08 00:14:07;;;;;;;2.33;1.80;;;;;;;19.12;67.20;102010.00;3558531;40;20614;-79
2021/07/08 00:16:33;;;;;;;2.33;2.10;;;;;;;19.07;67.28;102011.72;3560735;40;20259;-79
2021/07/08 00:18:59;;;;;;;3.10;2.60;;;;;;;19.02;67.59;102007.38;3559454;40;20270;-79
2021/07/08 00:21:25;;;;;;;3.70;2.30;;;;;;;18.96;67.66;102005.63;3560662;40;20266;-78
2021/07/08 00:23:50;;;;;;;2.30;2.10;;;;;;;18.91;67.93;102006.47;3560803;40;20231;-79
2021/07/08 00:26:16;;;;;;;2.70;1.90;;;;;;;18.87;67.61;102007.31;3561210;40;20234;-79
2021/07/08 00:28:41;;;;;;;3.17;2.37;;;;;;;18.89;67.91;102003.00;3561341;40;20329;-79
2021/07/08 00:31:07;;;;;;;2.80;2.33;;;;;;;18.87;67.95;102012.50;3558744;40;21006;-77
2021/07/08 00:33:33;;;;;;;3.13;2.40;;;;;;;18.84;68.16;102009.91;3559401;40;20242;-77
2021/07/08 00:35:58;;;;;;;3.43;2.50;;;;;;;18.79;67.97;102014.22;3560545;40;20239;-79
2021/07/08 00:38:23;;;;;;;2.40;2.17;;;;;;;18.72;68.32;102005.53;3560696;40;20243;-78
2021/07/08 00:40:49;;;;;;;2.83;2.57;;;;;;;18.67;68.35;102002.03;3555778;40;20310;-79
2021/07/08 00:43:14;;;;;;;3.53;2.03;;;;;;;18.65;68.58;102002.91;3559275;40;20606;-79
2021/07/08 00:45:40;;;;;;;3.90;2.67;;;;;;;18.59;68.70;102000.25;3552385;40;20236;-78
2021/07/08 00:48:06;;;;;;;2.87;2.40;;;;;;;18.56;68.98;102005.44;3551966;40;20641;-77
2021/07/08 00:50:34;;;;;;;4.80;2.67;;;;;;;18.55;68.85;102008.88;3559790;40;20239;-77
2021/07/08 00:52:59;;;;;;;3.87;2.63;;;;;;;18.50;69.20;102006.25;3560524;40;20235;-77
2021/07/08 00:55:25;;;;;;;2.40;2.20;;;;;;;18.52;69.11;102004.53;3557121;40;20236;-77
2021/07/08 00:57:54;;;;;;;2.53;2.33;;;;;;;18.51;69.35;102007.16;3552016;40;20224;-78
2021/07/08 01:00:28;;;;;;;2.47;2.27;;;;;;;18.49;69.50;102012.31;3555184;40;20229;-78
2021/07/08 01:02:55;;;;;;;2.47;2.10;;;;;;;18.48;69.68;102010.59;3552456;40;20689;-78
2021/07/08 01:05:23;;;;;;;2.67;2.47;;;;;;;18.50;69.81;102002.78;3554967;40;20827;-78
2021/07/08 01:07:48;;;;;;;2.42;2.13;;;;;;;18.48;69.85;102002.81;3561798;40;20250;-76
2021/07/08 01:10:15;;;;;;;3.00;2.67;;;;;;;18.47;69.53;102001.03;3556953;40;20224;-78
2021/07/08 01:12:41;;;;;;;4.40;2.80;;;;;;;18.45;69.74;102012.28;3552514;40;20324;-77
2021/07/08 01:15:10;;;;;;;2.47;2.27;;;;;;;18.42;69.99;102007.09;3560794;40;20223;-78
2021/07/08 01:17:36;;;;;;;2.90;2.50;;;;;;;18.40;69.84;102012.25;3552970;40;20252;-78
2021/07/08 01:20:03;;;;;;;3.95;2.88;;;;;;;18.37;69.80;102007.03;3552173;40;20661;-78
2021/07/08 01:22:29;;;;;;;2.17;1.97;;;;;;;18.39;69.82;102009.66;3551255;40;20638;-78
2021/07/08 01:24:54;;;;;;;4.27;2.90;;;;;;;18.40;69.96;102011.38;3562000;40;20223;-78
2021/07/08 01:27:19;;;;;;;2.77;2.47;;;;;;;18.42;69.77;102013.13;3562348;40;20626;-78
2021/07/08 01:29:45;;;;;;;3.33;3.03;;;;;;;18.46;69.63;102020.06;3557744;40;20826;-78
2021/07/08 01:32:10;;;;;;;5.80;3.30;;;;;;;18.44;69.93;102019.22;3557496;40;20329;-78
2021/07/08 01:34:36;;;;;;;3.47;3.17;;;;;;;18.41;70.04;102021.78;3561761;40;20256;-77
2021/07/08 01:37:03;;;;;;;5.27;3.17;;;;;;;18.38;70.10;102019.16;3562166;40;20232;-77
2021/07/08 01:39:29;;;;;;;3.10;2.63;;;;;;;18.36;70.06;102020.00;3551154;40;20310;-77
2021/07/08 01:41:54;;;;;;;4.13;3.10;;;;;;;18.34;70.39;102014.78;3560184;40;20593;-77
2021/07/08 01:44:19;;;;;;;3.00;2.60;;;;;;;18.32;70.33;102013.91;3555959;40;20235;-77
2021/07/08 01:46:45;;;;;;;4.87;3.23;;;;;;;18.28;70.46;102016.47;3551703;40;20224;-77
2021/07/08 01:49:10;;;;;;;3.87;2.73;;;;;;;18.23;70.53;102013.84;3555078;40;20236;-77
2021/07/08 01:51:36;;;;;;;3.60;3.17;;;;;;;18.19;70.57;102012.06;3551992;40;20290;-78
2021/07/08 01:54:04;;;;;;;3.60;3.30;;;;;;;18.17;70.60;102020.69;3551871;40;20224;-77
2021/07/08 01:56:29;;;;;;;4.10;3.20;;;;;;;18.15;70.99;102012.91;3558440;40;20234;-78
2021/07/08 01:58:55;;;;;;;4.23;3.30;;;;;;;18.15;71.06;102014.66;3561347;40;20508;-77
2021/07/08 02:01:21;;;;;;;3.40;3.10;;;;;;;18.13;71.19;102008.56;3561395;40;20551;-78
2021/07/08 02:03:46;;;;;;;3.43;2.80;;;;;;;18.13;71.09;102011.16;3560525;40;20219;-77
2021/07/08 02:06:12;;;;;;;3.40;3.10;;;;;;;18.12;71.05;102015.50;3556539;40;20251;-77
2021/07/08 02:08:37;;;;;;;3.33;2.93;;;;;;;18.09;71.05;102012.88;3555582;40;20231;-77
2021/07/08 02:11:04;;;;;;;3.70;3.40;;;;;;;18.04;71.10;102009.38;3554643;40;20244;-77
2021/07/08 02:13:31;;;;;;;3.13;2.83;;;;;;;18.02;70.98;102005.03;3552239;40;20239;-77
2021/07/08 02:15:56;;;;;;;3.97;3.23;;;;;;;17.97;71.04;102007.56;3552460;40;20240;-78
2021/07/08 02:18:22;;;;;;;2.63;2.43;;;;;;;17.94;70.94;102009.28;3551603;40;20243;-78
2021/07/08 02:20:47;;;;;;;4.00;2.90;;;;;;;17.90;71.37;102003.22;3560645;40;20243;-78
2021/07/08 02:23:12;;;;;;;3.53;2.73;;;;;;;17.88;71.48;102010.13;3560308;40;20219;-78
2021/07/08 02:25:37;;;;;;;4.23;2.50;;;;;;;17.90;71.46;102010.09;3557920;40;20531;-77
2021/07/08 02:28:03;;;;;;;3.27;2.57;;;;;;;17.88;71.29;102017.00;3550422;40;20838;-78
2021/07/08 02:30:28;;;;;;;4.47;2.77;;;;;;;17.87;71.50;102018.72;3556339;40;20231;-78
2021/07/08 02:32:56;;;;;;;4.43;3.23;;;;;;;17.83;71.63;102009.19;3561671;40;20242;-78
2021/07/08 02:35:24;;;;;;;2.87;2.57;;;;;;;17.83;71.79;102010.94;3556094;40;20235;-78
2021/07/08 02:37:49;;;;;;;3.23;3.00;;;;;;;17.88;71.60;102017.91;3553706;40;20223;-78
2021/07/08 02:40:17;;;;;;;3.57;3.13;;;;;;;17.90;71.89;102021.34;3553222;40;20255;-77
2021/07/08 02:42:50;;;;;;;3.90;3.30;;;;;;;17.92;71.94;102024.81;3552066;40;20279;-77
2021/07/08 02:45:17;;;;;;;3.43;3.13;;;;;;;17.93;71.98;102010.13;3559762;40;20231;-77
2021/07/08 02:47:42;;;;;;;4.27;3.37;;;;;;;17.96;71.76;102021.41;3559904;40;20235;-77
2021/07/08 02:50:08;;;;;;;3.77;3.47;;;;;;;17.98;71.79;102013.63;3560457;40;20652;-77
2021/07/08 02:52:33;;;;;;;3.70;3.20;;;;;;;17.99;72.14;102002.41;3560900;40;20613;-78
2021/07/08 02:54:58;;;;;;;3.87;3.50;;;;;;;17.98;72.29;102004.16;3558127;40;20230;-77
2021/07/08 02:57:24;;;;;;;4.77;3.77;;;;;;;18.00;72.09;102004.16;3560811;40;20222;-78
2021/07/08 02:59:49;;;;;;;5.43;4.07;;;;;;;18.05;72.07;101992.94;3560361;40;20834;-77
2021/07/08 03:02:14;;;;;;;4.43;4.03;;;;;;;18.04;72.10;101990.34;3553857;40;20260;-77
2021/07/08 03:04:40;;;;;;;3.93;3.63;;;;;;;18.01;72.45;101987.75;3549857;40;20515;-77
2021/07/08 03:07:05;;;;;;;3.37;3.07;;;;;;;17.99;72.17;101992.91;3550579;40;20260;-76
2021/07/08 03:09:31;;;;;;;4.23;3.73;;;;;;;17.99;72.40;101995.50;3550393;40;20322;-76
2021/07/08 03:11:56;;;;;;;7.90;3.33;;;;;;;17.99;72.10;101994.63;3551268;40;20241;-77
2021/07/08 03:14:21;;;;;;;4.10;3.53;;;;;;;17.99;72.32;101989.44;3549872;40;20496;-76
2021/07/08 03:16:47;;;;;;;4.57;3.40;;;;;;;17.99;71.93;101995.50;3550227;40;20278;-78
2021/07/08 03:19:12;;;;;;;6.43;4.03;;;;;;;18.04;71.89;101992.94;3550482;40;20232;-76
2021/07/08 03:21:37;;;;;;;3.60;3.23;;;;;;;18.01;72.02;101986.00;3549250;40;20242;-77
2021/07/08 03:24:05;;;;;;;3.83;3.20;;;;;;;18.05;71.79;101992.94;3550371;40;20239;-78
2021/07/08 03:26:30;;;;;;;3.53;3.03;;;;;;;18.08;71.73;101986.91;3551045;40;20310;-77
2021/07/08 03:28:55;;;;;;;5.17;3.90;;;;;;;18.15;71.63;101989.56;3553172;40;20228;-78
2021/07/08 03:31:22;;;;;;;3.10;2.80;;;;;;;18.12;71.46;101999.06;3553456;40;20235;-77
2021/07/08 03:33:47;;;;;;;3.23;2.83;;;;;;;18.18;71.67;101999.97;3550629;40;20510;-78
2021/07/08 03:36:13;;;;;;;4.63;2.83;;;;;;;18.16;71.41;102006.00;3549639;40;20235;-77
2021/07/08 03:38:38;;;;;;;3.53;2.57;;;;;;;18.17;72.27;102007.72;3553781;40;20227;-77
2021/07/08 03:41:03;;;;;;;3.67;2.60;;;;;;;18.17;71.51;102008.63;3560591;40;20500;-78
2021/07/08 03:43:28;;;;;;;2.60;2.40;;;;;;;18.19;71.85;102009.47;3559964;40;20234;-78
2021/07/08 03:45:54;;;;;;;3.27;2.97;;;;;;;18.28;71.44;102011.28;3561048;40;20239;-77
2021/07/08 03:48:19;;;;;;;3.03;2.53;;;;;;;18.28;71.10;102006.09;3560860;40;20223;-77
2021/07/08 03:50:44;;;;;;;2.40;2.03;;;;;;;18.30;71.08;102013.03;3560617;40;20288;-77
2021/07/08 03:53:10;;;;;;;3.53;3.23;;;;;;;18.34;71.24;102012.19;3560780;40;20231;-78
2021/07/08 03:55:35;;;;;;;3.97;3.10;;;;;;;18.35;71.28;102013.97;3560286;40;20510;-78
2021/07/08 03:58:01;;;;;;;5.43;3.50;;;;;;;18.35;71.18;102011.38;3552633;40;20232;-78
2021/07/08 04:00:38;;;;;;;5.87;4.03;;;;;;;18.36;71.29;102013.09;3554579;40;20254;-78
2021/07/08 04:03:07;;;;;;;3.60;3.30;;;;;;;18.34;71.23;102017.38;3559644;40;20353;-77
2021/07/08 04:05:33;;;;;;;4.93;2.90;;;;;;;18.41;71.05;102023.47;3558407;40;20640;-78
2021/07/08 04:07:59;;;;;;;4.60;3.30;;;;;;;18.39;71.62;102033.00;3549749;40;20227;-77
2021/07/08 04:10:25;;;;;;;3.70;2.80;;;;;;;18.38;71.24;102033.88;3549660;40;20236;-77
2021/07/08 04:12:51;;;;;;;2.90;2.67;;;;;;;18.40;nan;102032.13;3549700;40;20243;-78
2021/07/08 04:15:17;;;;;;;3.77;3.20;;;;;;;18.46;71.28;102034.75;3549288;40;20317;-77
2021/07/08 04:17:42;;;;;;;4.00;2.77;;;;;;;18.48;71.14;102049.50;3549039;40;20236;-77
2021/07/08 04:20:10;;;;;;;2.90;2.60;;;;;;;18.54;70.92;102046.94;3553095;40;20220;-77
2021/07/08 04:22:35;;;;;;;3.07;2.77;;;;;;;18.55;70.77;102052.97;3549546;40;20251;-77
2021/07/08 04:25:00;;;;;;;2.80;2.53;;;;;;;18.56;70.69;102054.75;3549281;40;20552;-77
2021/07/08 04:27:27;;;;;;;3.13;2.87;;;;;;;18.59;70.72;102055.63;3548837;40;20231;-77
2021/07/08 04:29:52;;;;;;;4.33;3.50;;;;;;;18.66;70.25;102049.59;3552561;40;20768;-77
2021/07/08 04:32:17;;;;;;;5.50;4.30;;;;;;;18.73;70.50;102042.72;3560429;40;20255;-77
2021/07/08 04:34:43;;;;;;;4.20;3.47;;;;;;;18.75;70.67;102036.66;3556528;40;20224;-77
2021/07/08 04:37:09;;;;;;;6.37;4.43;;;;;;;18.84;70.21;102041.06;3559376;40;20310;-78
2021/07/08 04:39:34;;;;;;;6.30;3.83;;;;;;;18.86;69.93;102040.19;3560700;40;20308;-77
2021/07/08 04:41:59;;;;;;;4.37;3.80;;;;;;;19.01;70.01;102045.47;3561665;40;20239;-78
2021/07/08 04:44:24;;;;;;;5.27;3.63;;;;;;;19.08;69.78;102055.03;3561032;40;20224;-78
2021/07/08 04:46:49;;;;;;;6.20;4.20;;;;;;;19.01;69.91;102063.63;3561925;40;20620;-78
2021/07/08 04:49:15;;;;;;;6.03;4.07;;;;;;;19.03;69.71;102061.06;3561385;40;20264;-78
2021/07/08 04:51:40;;;;;;;5.73;4.60;;;;;;;19.03;69.63;102059.31;3562076;40;20236;-78
2021/07/08 04:54:05;;;;;;;6.03;4.40;;;;;;;19.13;69.33;102055.03;3562514;40;20319;-78
2021/07/08 04:56:31;;;;;;;4.10;3.40;;;;;;;19.00;69.75;102053.25;3561915;40;20223;-77
2021/07/08 04:58:56;;;;;;;4.67;3.80;;;;;;;19.08;69.02;102061.94;3561096;40;20293;-78
2021/07/08 05:01:21;;;;;;;5.33;4.83;;;;;;;19.01;69.69;102063.63;3560243;40;20247;-78
2021/07/08 05:03:46;;;;;;;4.23;3.83;;;;;;;18.99;69.71;102060.19;3560645;40;20257;-78
2021/07/08 05:06:11;;;;;;;4.37;3.90;;;;;;;19.24;68.91;102061.16;3565839;40;20291;-77
2021/07/08 05:08:37;;;;;;;5.10;4.60;;;;;;;19.22;68.61;102068.97;3571384;40;20233;-78
2021/07/08 05:11:02;;;;;;;4.80;4.40;;;;;;;19.37;67.80;102066.41;3562159;40;20246;-78
2021/07/08 05:13:28;;;;;;;4.17;3.57;;;;;;;19.48;68.14;102063.84;3560849;40;20224;-77
2021/07/08 05:15:53;;;;;;;6.37;4.80;;;;;;;19.32;68.73;102075.03;3561929;40;20230;-78
2021/07/08 05:18:18;;;;;;;5.83;5.00;;;;;;;19.32;68.63;102067.25;3561323;40;20282;-78
2021/07/08 05:20:44;;;;;;;4.63;4.23;;;;;;;19.24;68.90;102061.16;3561071;40;20806;-78
2021/07/08 05:23:17;;;;;;;5.80;4.60;;;;;;;19.32;68.56;102064.66;3567981;40;20246;-78
2021/07/08 05:25:44;;;;;;;4.27;2.87;;;;;;;19.31;68.77;102060.31;3571889;40;20234;-80
2021/07/08 05:28:13;;;;;;;4.40;4.07;;;;;;;19.40;67.77;102053.41;3569714;40;20225;-76
2021/07/08 05:30:40;;;;;;;4.83;4.43;;;;;;;19.47;67.89;102047.38;3560560;40;20242;-78
2021/07/08 05:33:05;;;;;;;4.03;3.73;;;;;;;19.42;67.83;102051.69;3560768;40;20232;-78
2021/07/08 05:35:31;;;;;;;7.40;4.77;;;;;;;19.30;68.21;102059.44;3561325;40;20229;-77
2021/07/08 05:37:56;;;;;;;7.90;5.10;;;;;;;19.78;66.99;102072.59;3560984;40;20596;-78
2021/07/08 05:40:22;;;;;;;6.43;5.40;;;;;;;19.91;66.54;102089.06;3560503;40;20632;-77
2021/07/08 05:42:47;;;;;;;6.80;4.80;;;;;;;19.92;65.86;102089.06;3577123;40;20261;-78
2021/07/08 05:45:12;;;;;;;5.67;4.57;;;;;;;19.61;67.05;102083.78;3561209;40;20236;-79
2021/07/08 05:47:38;;;;;;;4.47;4.07;;;;;;;19.55;67.38;102076.88;3560261;40;20255;-78
2021/07/08 05:50:04;;;;;;;6.10;4.90;;;;;;;19.54;68.08;102077.72;3561683;40;20238;-79
2021/07/08 05:52:29;;;;;;;8.30;5.27;;;;;;;19.53;67.86;102069.94;3561196;40;20312;-78
2021/07/08 05:54:55;;;;;;;5.70;4.73;;;;;;;19.47;68.10;102068.16;3560961;40;20234;-80
2021/07/08 05:57:20;;;;;;;8.83;5.40;;;;;;;19.51;68.36;102063.84;3560079;40;20224;-78
2021/07/08 05:59:46;;;;;;;6.23;4.60;;;;;;;19.55;68.20;102068.19;3569645;40;20230;-78
2021/07/08 06:02:11;;;;;;;6.70;4.87;;;;;;;19.54;68.39;102063.84;3569592;40;20714;-77
2021/07/08 06:04:36;;;;;;;6.57;4.63;;;;;;;19.58;68.22;102068.22;3570434;40;20231;-77
2021/07/08 06:07:02;;;;;;;5.30;4.80;;;;;;;19.65;67.72;102056.94;3570668;40;20262;-77
2021/07/08 06:09:27;;;;;;;4.80;4.30;;;;;;;19.73;67.46;102065.63;3570769;40;20321;-78
2021/07/08 06:11:53;;;;;;;6.07;5.20;;;;;;;19.92;66.92;102067.38;3570077;40;20234;-78
2021/07/08 06:14:18;;;;;;;7.03;5.23;;;;;;;20.04;66.71;102072.59;3571370;40;20667;-78
2021/07/08 06:16:44;;;;;;;7.17;4.80;;;;;;;20.14;66.54;102079.56;3570972;40;20223;-77
2021/07/08 06:19:09;;;;;;;8.17;5.67;;;;;;;20.36;65.86;102092.56;3571790;40;20258;-79
2021/07/08 06:21:34;;;;;;;6.53;5.53;;;;;;;20.59;64.80;102100.38;3571530;40;20250;-79
2021/07/08 06:23:59;;;;;;;6.53;5.00;;;;;;;20.50;64.90;102100.38;3572310;40;20234;-78
2021/07/08 06:26:25;;;;;;;5.90;5.30;;;;;;;20.67;65.10;102098.59;3570227;40;20254;-79
2021/07/08 06:28:50;;;;;;;6.90;5.60;;;;;;;20.85;64.60;102094.25;3566655;40;20219;-78
2021/07/08 06:31:15;;;;;;;5.80;5.20;;;;;;;20.74;65.11;102097.75;3561036;40;20255;-78
2021/07/08 06:33:41;;;;;;;7.10;6.20;;;;;;;20.68;64.63;102096.00;3561811;40;20235;-78
2021/07/08 06:36:08;;;;;;;5.40;4.90;;;;;;;20.70;64.18;102098.59;3561910;40;20231;-77
2021/07/08 06:38:33;;;;;;;6.17;5.57;;;;;;;20.80;63.90;102102.94;3561661;40;20231;-78
2021/07/08 06:40:58;;;;;;;5.53;5.07;;;;;;;20.41;65.05;102103.00;3561845;40;20639;-79
2021/07/08 06:43:23;;;;;;;6.80;5.30;;;;;;;20.38;65.47;102102.97;3561235;40;20316;-77
2021/07/08 06:45:49;;;;;;;5.37;4.30;;;;;;;20.41;65.74;102095.19;3560869;40;20215;-78
2021/07/08 06:48:15;;;;;;;7.13;5.43;;;;;;;20.44;65.62;102096.03;3561264;40;20231;-77
2021/07/08 06:50:43;;;;;;;5.20;4.70;;;;;;;20.51;65.96;102110.81;3560025;40;20649;-78
2021/07/08 06:53:09;;;;;;;7.33;4.87;;;;;;;20.54;65.86;102109.94;3556195;40;20314;-79
2021/07/08 06:55:36;;;;;;;4.27;3.87;;;;;;;20.62;66.04;102108.16;3557560;40;20246;-78
2021/07/08 06:58:02;;;;;;;7.67;5.23;;;;;;;20.81;65.27;102105.53;3559881;40;20227;-78
2021/07/08 07:00:33;;;;;;;8.23;6.00;;;;;;;20.81;64.86;102102.94;3557050;40;20234;-78
2021/07/08 07:02:59;;;;;;;6.27;5.53;;;;;;;21.01;63.99;102101.16;3560374;40;20234;-78
2021/07/08 07:05:27;;;;;;;8.23;6.20;;;;;;;21.22;63.68;102102.81;3560106;40;20228;-78
2021/07/08 07:07:53;;;;;;;8.63;5.50;;;;;;;21.38;63.26;102105.34;3560161;40;20231;-78
2021/07/08 07:10:20;;;;;;;9.23;6.27;;;;;;;21.63;62.23;102108.72;3559393;40;20239;-77
2021/07/08 07:12:46;;;;;;;6.50;5.20;;;;;;;21.66;62.04;102108.72;3561095;40;20239;-79
2021/07/08 07:15:14;;;;;;;6.37;5.10;;;;;;;21.77;62.21;102125.19;3560478;40;20230;-78
2021/07/08 07:17:39;;;;;;;5.47;4.87;;;;;;;21.72;62.45;102113.91;3561026;40;20215;-78
2021/07/08 07:20:10;;;;;;;5.70;3.80;;;;;;;21.75;62.43;102112.16;3560963;40;20255;-79
2021/07/08 07:22:37;;;;;;;4.90;4.40;;;;;;;22.08;62.21;102119.78;3561041;40;20247;-79
2021/07/08 07:25:06;;;;;;;6.13;4.90;;;;;;;22.19;60.62;102119.69;3561243;40;20246;-77
2021/07/08 07:27:32;;;;;;;7.60;5.87;;;;;;;22.49;59.99;102118.59;3550826;40;20231;-78
2021/07/08 07:30:02;;;;;;;5.40;4.73;;;;;;;22.47;60.63;102121.22;3558930;40;20256;-79
2021/07/08 07:32:27;;;;;;;7.07;5.10;;;;;;;22.52;60.58;102129.03;3560172;40;20239;-79
2021/07/08 07:34:52;;;;;;;6.17;4.50;;;;;;;22.58;60.29;102128.97;3560437;40;20294;-78
2021/07/08 07:37:18;;;;;;;5.30;4.57;;;;;;;22.56;59.69;102131.59;3560257;40;20231;-79
2021/07/08 07:39:43;;;;;;;6.60;5.10;;;;;;;22.81;59.36;102125.25;3560434;40;20254;-78
2021/07/08 07:42:08;;;;;;;6.40;4.80;;;;;;;23.10;58.17;102117.97;3561666;40;20250;-80
2021/07/08 07:44:33;;;;;;;5.20;4.00;;;;;;;23.54;56.60;102120.06;3560931;40;20227;-79
2021/07/08 07:46:59;;;;;;;5.53;4.70;;;;;;;23.53;56.68;102121.81;3556801;40;20766;-78
2021/07/08 07:49:24;;;;;;;7.70;5.13;;;;;;;23.56;56.42;102121.78;3551593;40;20319;-79
2021/07/08 07:51:49;;;;;;;7.70;3.60;;;;;;;23.49;56.34;102106.19;3551272;40;20288;-79
2021/07/08 07:54:15;;;;;;;5.43;4.30;;;;;;;23.47;56.84;102105.31;3550867;40;20578;-81
2021/07/08 07:56:40;;;;;;;5.13;4.13;;;;;;;23.65;57.12;102099.84;3551612;40;20212;-79
2021/07/08 07:59:05;;;;;;;6.97;4.60;;;;;;;23.98;56.81;102096.78;3550774;40;20227;-79
2021/07/08 08:01:31;;;;;;;5.68;4.78;;;;;;;24.20;55.61;102090.28;3561350;40;20242;-79
2021/07/08 08:03:57;;;;;;;5.72;4.10;;;;;;;24.42;56.31;102089.06;3563262;40;20290;-79
2021/07/08 08:09:06;;;;;;;7.25;3.85;;;;;;;24.87;54.15;102091.72;3562998;40;20237;-79
2021/07/08 08:11:32;;;;;;;5.07;3.80;;;;;;;24.98;53.20;102086.28;3562267;40;20247;-79
2021/07/08 08:13:58;;;;;;;7.10;4.03;;;;;;;25.11;51.42;102086.00;3563430;40;20277;-79
2021/07/08 08:16:23;;;;;;;5.00;3.92;;;;;;;25.19;52.03;102078.81;3562151;40;20242;-79
2021/07/08 08:18:48;;;;;;;7.38;3.70;;;;;;;25.14;52.97;102079.84;3563024;40;20242;-79
2021/07/08 08:21:13;;;;;;;5.45;3.80;;;;;;;25.31;52.75;102081.25;3563538;40;20241;-80
2021/07/08 08:23:39;;;;;;;3.97;3.50;;;;;;;25.39;52.32;102084.56;3563583;40;20610;-80
2021/07/08 08:26:05;;;;;;;4.95;4.38;;;;;;;25.55;51.17;102085.09;3563456;40;20258;-80
2021/07/08 08:28:31;;;;;;;5.03;4.13;;;;;;;25.44;51.44;102093.19;3563585;40;20227;-79
2021/07/08 08:30:56;;;;;;;6.88;3.53;;;;;;;25.28;51.69;102098.81;3563822;40;20258;-79
2021/07/08 08:33:21;;;;;;;5.32;3.60;;;;;;;25.47;49.58;102094.91;3561391;40;20496;-79
2021/07/08 08:35:47;;;;;;;7.82;4.22;;;;;;;25.61;49.22;102095.47;3562378;40;20219;-79
2021/07/08 08:38:12;;;;;;;5.43;3.40;;;;;;;25.54;49.56;102096.47;3561832;40;20249;-78
2021/07/08 08:40:37;;;;;;;8.05;3.45;;;;;;;25.60;49.92;102097.19;3561440;40;20284;-78
2021/07/08 08:43:03;;;;;;;4.80;3.65;;;;;;;25.41;49.82;102102.91;3562882;40;20238;-79
2021/07/08 08:45:29;;;;;;;4.80;3.80;;;;;;;25.34;50.79;102103.91;3561832;40;20328;-79
2021/07/08 08:48:06;;;;;;;5.50;3.60;;;;;;;25.36;51.26;102095.13;3562711;40;20719;-78
2021/07/08 08:50:37;;;;;;;5.03;3.85;;;;;;;25.27;51.42;102102.34;3561728;40;20321;-78
2021/07/08 08:53:04;;;;;;;4.72;3.30;;;;;;;25.25;52.38;102111.94;3562691;40;20317;-78
2021/07/08 08:55:29;;;;;;;4.57;4.10;;;;;;;25.41;51.64;102108.16;3563160;40;20223;-78
2021/07/08 08:57:55;;;;;;;5.10;3.80;;;;;;;25.63;50.52;102114.66;3562959;40;20231;-79
2021/07/08 09:00:23;;;;;;;4.90;4.35;;;;;;;25.60;51.08;102114.72;3563269;40;20328;-78
2021/07/08 09:02:58;;;;;;;8.68;4.63;;;;;;;25.19;51.73;102112.94;3563034;40;20285;-79
2021/07/08 09:05:24;;;;;;;4.72;3.72;;;;;;;25.12;52.47;102116.59;3562151;40;20230;-79
2021/07/08 09:07:49;;;;;;;5.15;4.10;;;;;;;25.44;52.35;102123.81;3563175;40;20688;-79
2021/07/08 09:10:15;;;;;;;7.13;4.22;;;;;;;25.14;52.71;102124.44;3562623;40;20223;-79
2021/07/08 09:12:41;;;;;;;7.22;4.70;;;;;;;25.36;52.41;102115.22;3561645;40;20722;-79
2021/07/08 09:15:18;;;;;;;5.82;4.68;;;;;;;25.25;52.62;102125.06;3563250;40;20234;-78
2021/07/08 09:17:44;;;;;;;6.30;4.28;;;;;;;25.28;52.58;102125.88;3563236;40;20226;-79
2021/07/08 09:20:15;;;;;;;6.95;4.82;;;;;;;25.38;52.27;102129.19;3563220;40;20231;-79
2021/07/08 09:22:41;;;;;;;5.60;4.20;;;;;;;25.28;53.03;102117.19;3563366;40;20317;-79
2021/07/08 09:25:19;;;;;;;8.90;4.72;;;;;;;25.36;52.35;102108.25;3562183;40;20279;-78
2021/07/08 09:27:46;;;;;;;7.70;3.72;;;;;;;25.33;51.76;102108.28;3563417;40;20245;-79
2021/07/08 09:30:26;;;;;;;4.65;2.97;;;;;;;25.49;51.68;102112.34;3562905;40;20239;-79
2021/07/08 09:32:51;;;;;;;8.38;3.70;;;;;;;25.72;50.84;102102.19;3578637;40;20617;-79
2021/07/08 09:35:35;;;;;;;5.38;4.13;;;;;;;26.07;50.60;102115.38;3578799;40;20225;-79
2021/07/08 09:38:11;;;;;;;7.03;4.13;;;;;;;26.09;50.58;102115.34;3563354;40;20231;-78
2021/07/08 09:40:37;;;;;;;8.25;3.47;;;;;;;26.26;51.14;102116.69;3563093;40;20243;-79
2021/07/08 09:43:03;;;;;;;7.72;4.30;;;;;;;26.43;49.55;102122.38;3563332;40;20239;-79
2021/07/08 09:45:28;;;;;;;7.75;4.32;;;;;;;26.34;49.75;102119.97;3563262;40;20321;-79
2021/07/08 09:48:09;;;;;;;5.85;4.20;;;;;;;26.20;49.93;102123.84;3562920;40;20609;-79
2021/07/08 09:50:38;;;;;;;4.60;2.90;;;;;;;26.03;50.18;102128.63;3561241;40;20227;-79
2021/07/08 09:53:11;;;;;;;5.28;3.95;;;;;;;26.32;49.69;102131.41;3533830;40;20238;-78
2021/07/08 09:58:32;;;;;;;5.47;4.35;;;;;;;26.31;50.75;102129.69;3562496;40;20730;-79
2021/07/08 10:01:08;;;;;;;5.57;4.70;;;;;;;26.59;49.25;102126.38;3562283;40;20254;-79
2021/07/08 10:03:35;;;;;;;4.85;4.20;;;;;;;26.66;49.39;102125.28;3562564;40;20231;-80
2021/07/08 10:06:01;;;;;;;10.43;4.63;;;;;;;26.92;48.90;102122.84;3562189;40;20230;-78
2021/07/08 10:08:26;;;;;;;7.70;3.72;;;;;;;26.84;49.47;102131.84;3561371;40;20247;-79
2021/07/08 10:10:51;;;;;;;7.03;4.47;;;;;;;26.83;49.58;102123.09;3562127;40;20608;-80
2021/07/08 10:13:17;;;;;;;6.75;4.15;;;;;;;26.81;50.14;102118.78;3562070;40;20239;-79
2021/07/08 10:15:44;;;;;;;6.38;4.65;;;;;;;26.85;50.21;102099.38;3562615;40;20927;-79
2021/07/08 10:18:12;;;;;;;4.28;3.30;;;;;;;26.71;51.35;102104.16;3562912;40;20556;-79
2021/07/08 10:20:38;;;;;;;5.68;4.15;;;;;;;26.75;50.23;102098.75;3562242;40;20246;-79
2021/07/08 10:23:05;;;;;;;6.90;4.63;;;;;;;26.92;49.56;102103.56;3562874;40;20230;-83
2021/07/08 10:25:30;;;;;;;5.38;4.13;;;;;;;26.95;49.20;102108.75;3561598;40;20258;-79
2021/07/08 10:28:00;;;;;;;6.25;4.60;;;;;;;26.86;48.65;102115.13;3562066;40;20219;-79
2021/07/08 10:30:27;;;;;;;3.88;3.47;;;;;;;26.77;50.10;102117.13;3560327;40;20241;-79
2021/07/08 10:32:55;;;;;;;8.10;4.35;;;;;;;26.92;48.59;102114.06;3552973;40;20501;-80
2021/07/08 10:35:44;;;;;;;3.33;3.03;;;;;;;26.96;49.26;102108.72;3552966;40;20670;-79
2021/07/08 10:38:29;;;;;;;4.35;3.95;;;;;;;26.92;50.45;102114.94;3553824;40;20234;-79
2021/07/08 10:40:56;;;;;;;4.28;3.85;;;;;;;27.21;49.15;102119.44;3551699;40;20262;-79
2021/07/08 10:43:39;;;;;;;4.03;3.30;;;;;;;27.45;47.07;102113.44;3553057;40;20243;-79
2021/07/08 10:46:17;;;;;;;4.40;3.30;;;;;;;27.41;46.89;102102.16;3560667;40;20271;-78
2021/07/08 10:48:42;;;;;;;4.28;3.45;;;;;;;27.47;48.14;102104.59;3562755;40;20271;-79
2021/07/08 10:51:14;;;;;;;9.32;3.88;;;;;;;27.39;47.43;102103.09;3561842;40;20250;-80
2021/07/08 10:53:41;;;;;;;5.82;3.40;;;;;;;27.38;47.81;102096.97;3562524;40;20603;-78
2021/07/08 10:56:09;;;;;;;5.88;3.28;;;;;;;27.45;47.17;102098.50;3562847;40;20247;-78
2021/07/08 10:58:41;;;;;;;7.30;3.95;;;;;;;27.39;46.58;102090.78;3561471;40;20239;-78
2021/07/08 11:01:27;;;;;;;4.75;2.72;;;;;;;27.24;47.86;102109.69;3562303;40;20242;-78
2021/07/08 11:04:02;;;;;;;5.25;3.90;;;;;;;27.24;47.76;102111.44;3562657;40;20696;-78
2021/07/08 11:06:42;;;;;;;3.28;2.97;;;;;;;27.22;47.78;102103.59;3562724;40;20215;-78
2021/07/08 11:09:20;;;;;;;6.25;3.50;;;;;;;27.35;47.77;102090.94;3562382;40;20575;-78
2021/07/08 11:11:45;;;;;;;5.75;4.22;;;;;;;27.32;47.83;102086.63;3562422;40;20251;-78
2021/07/08 11:14:12;;;;;;;4.83;3.80;;;;;;;27.50;46.95;102086.06;3561540;40;20380;-78
2021/07/08 11:17:11;;;;;;;6.43;3.88;;;;;;;27.46;48.24;102086.22;3562274;40;20238;-79
2021/07/08 11:19:39;;;;;;;5.68;3.92;;;;;;;27.51;48.37;102081.66;3551544;40;20219;-80
2021/07/08 11:22:16;;;;;;;3.85;2.80;;;;;;;27.61;48.74;102075.22;3562930;40;20301;-79
2021/07/08 11:24:51;;;;;;;4.82;3.38;;;;;;;27.66;47.39;102074.16;3561852;40;20553;-79
2021/07/08 11:27:31;;;;;;;4.32;3.28;;;;;;;27.86;47.15;102065.66;3563145;40;20682;-79
2021/07/08 11:30:24;;;;;;;5.30;3.53;;;;;;;28.01;46.49;102054.63;3562905;40;20259;-80